createdAt,value
2024-03-05T00:00:25.516Z,79.79
2024-03-05T00:02:51.950Z,79.87
2024-03-05T00:05:19.505Z,80.05
2024-03-05T00:07:46.171Z,80.34
2024-03-05T00:10:12.940Z,79.69
2024-03-05T00:12:39.369Z,81.14
2024-03-05T00:15:06.307Z,81.15
2024-03-05T00:17:32.999Z,81.06
2024-03-05T00:19:59.453Z,80.81
2024-03-05T00:22:25.906Z,80.39
2024-03-05T00:24:52.416Z,80.91
2024-03-05T00:27:18.873Z,81.15
2024-03-05T00:29:45.326Z,81.82
2024-03-05T00:32:11.860Z,80.93
2024-03-05T00:34:39.253Z,80.79
2024-03-05T00:37:06.179Z,81.01
2024-03-05T00:39:32.667Z,80.81
2024-03-05T00:41:59.056Z,81.38
2024-03-05T00:44:25.523Z,81.37
2024-03-05T00:46:54.022Z,81.93
2024-03-05T00:49:21.416Z,81.40
2024-03-05T00:51:48.759Z,81.62
2024-03-05T00:54:15.368Z,80.93
2024-03-05T00:56:41.866Z,81.05
2024-03-05T00:59:08.305Z,81.55
2024-03-05T01:01:34.823Z,82.04
2024-03-05T01:04:01.486Z,81.55
2024-03-05T01:06:27.854Z,81.96
2024-03-05T01:08:54.230Z,81.32
2024-03-05T01:11:20.738Z,81.57
2024-03-05T01:13:47.209Z,81.13
2024-03-05T01:16:13.726Z,81.77
2024-03-05T01:18:40.157Z,81.07
2024-03-05T01:21:07.504Z,81.28
2024-03-05T01:23:34.369Z,81.60
2024-03-05T01:26:01.091Z,82.28
2024-03-05T01:28:30.545Z,81.54
2024-03-05T01:30:56.996Z,81.04
2024-03-05T01:33:24.074Z,81.27
2024-03-05T01:35:52.147Z,81.94
2024-03-05T01:38:18.685Z,81.92
2024-03-05T01:40:46.126Z,81.21
2024-03-05T01:43:12.662Z,82.99
2024-03-05T01:45:39.388Z,82.08
2024-03-05T01:48:06.477Z,82.00
2024-03-05T01:50:36.347Z,82.38
2024-03-05T01:53:05.489Z,81.96
2024-03-05T01:55:32.156Z,82.46
2024-03-05T01:57:59.425Z,82.53
2024-03-05T02:00:27.299Z,82.84
2024-03-05T02:02:56.628Z,82.82
2024-03-05T02:05:23.825Z,83.23
2024-03-05T02:07:54.532Z,82.91
2024-03-05T02:10:24.313Z,82.79
2024-03-05T02:12:50.839Z,82.94
2024-03-05T02:15:19.970Z,83.50
2024-03-05T02:17:47.099Z,82.69
2024-03-05T02:20:16.573Z,82.31
2024-03-05T02:22:43.574Z,81.82
2024-03-05T02:25:10.877Z,82.41
2024-03-05T02:27:38.233Z,81.84
2024-03-05T02:30:11.249Z,82.20
2024-03-05T02:32:41.859Z,82.45
2024-03-05T02:35:09.502Z,82.11
2024-03-05T02:37:40.009Z,82.09
2024-03-05T02:40:11.252Z,81.93
2024-03-05T02:42:38.161Z,82.10
2024-03-05T02:45:08.359Z,82.06
2024-03-05T02:47:43.245Z,81.81
2024-03-05T02:50:10.906Z,82.02
2024-03-05T02:52:40.397Z,81.88
2024-03-05T02:55:11.256Z,83.09
2024-03-05T02:57:45.449Z,82.86
2024-03-05T03:00:21.550Z,82.90
2024-03-05T03:02:50.487Z,82.82
2024-03-05T03:05:17.897Z,83.09
2024-03-05T03:07:45.009Z,82.80
2024-03-05T03:10:14.829Z,83.39
2024-03-05T03:12:41.990Z,83.02
2024-03-05T03:15:09.504Z,83.06
2024-03-05T03:17:39.283Z,82.51
2024-03-05T03:20:08.815Z,83.22
2024-03-05T03:22:36.383Z,83.11
2024-03-05T03:25:03.131Z,83.06
2024-03-05T03:27:31.056Z,83.26
2024-03-05T03:29:59.096Z,83.10
2024-03-05T03:32:25.648Z,82.68
2024-03-05T03:34:52.775Z,82.92
2024-03-05T03:37:19.343Z,82.84
2024-03-05T03:39:47.878Z,82.29
2024-03-05T03:42:14.384Z,83.17
2024-03-05T03:44:40.980Z,83.10
2024-03-05T03:47:07.986Z,82.93
2024-03-05T03:49:34.656Z,82.36
2024-03-05T03:52:01.059Z,82.37
2024-03-05T03:54:27.512Z,82.05
2024-03-05T03:56:53.959Z,82.52
2024-03-05T03:59:21.269Z,81.96
2024-03-05T04:01:49.059Z,82.84
2024-03-05T04:04:15.508Z,82.85
2024-03-05T04:06:43.166Z,83.03
2024-03-05T04:09:09.651Z,82.83
2024-03-05T04:11:39.665Z,82.06
2024-03-05T04:14:06.343Z,82.44
2024-03-05T04:16:33.001Z,82.57
2024-03-05T04:18:59.867Z,82.24
2024-03-05T04:21:26.972Z,82.15
2024-03-05T04:23:53.687Z,82.27
2024-03-05T04:26:27.767Z,82.75
2024-03-05T04:28:56.132Z,82.12
2024-03-05T04:34:00.327Z,82.75
2024-03-05T04:36:26.725Z,82.64
2024-03-05T04:38:56.486Z,82.16
2024-03-05T04:41:23.399Z,81.80
2024-03-05T04:43:49.818Z,82.11
2024-03-05T04:46:16.279Z,82.93
2024-03-05T04:48:42.667Z,82.67
2024-03-05T04:51:13.570Z,82.78
2024-03-05T04:53:39.984Z,82.16
2024-03-05T04:56:07.713Z,82.90
2024-03-05T04:58:34.568Z,82.59
2024-03-05T05:01:00.992Z,82.82
2024-03-05T05:03:27.676Z,82.98
2024-03-05T05:05:58.666Z,82.72
2024-03-05T05:08:25.229Z,82.79
2024-03-05T05:10:51.742Z,82.71
2024-03-05T05:13:18.693Z,83.34
2024-03-05T05:15:45.250Z,83.46
2024-03-05T05:18:11.696Z,82.69
2024-03-05T05:20:38.142Z,83.53
2024-03-05T05:23:05.051Z,83.55
2024-03-05T05:25:31.512Z,83.07
2024-03-05T05:27:57.936Z,83.39
2024-03-05T05:30:24.864Z,83.50
2024-03-05T05:32:51.626Z,83.38
2024-03-05T05:35:18.531Z,83.15
2024-03-05T05:37:45.861Z,83.26
2024-03-05T05:40:14.948Z,82.09
2024-03-05T05:42:42.438Z,82.46
2024-03-05T05:45:10.339Z,83.44
2024-03-05T05:47:39.718Z,82.93
2024-03-05T05:50:18.501Z,83.39
2024-03-05T05:52:51.241Z,83.47
2024-03-05T05:55:20.643Z,82.94
2024-03-05T05:57:48.767Z,82.78
2024-03-05T06:00:36.223Z,83.42
2024-03-05T06:03:09.014Z,82.94
2024-03-05T06:05:37.618Z,83.22
2024-03-05T06:08:05.367Z,82.96
2024-03-05T06:10:31.992Z,82.56
2024-03-05T06:12:59.271Z,82.29
2024-03-05T06:15:25.726Z,82.71
2024-03-05T06:17:52.969Z,82.46
2024-03-05T06:20:19.818Z,83.12
2024-03-05T06:22:46.926Z,82.84
2024-03-05T06:25:17.752Z,82.83
2024-03-05T06:27:44.518Z,82.96
2024-03-05T06:30:19.294Z,83.16
2024-03-05T06:32:48.656Z,82.80
2024-03-05T06:35:17.083Z,82.88
2024-03-05T06:37:45.142Z,83.30
2024-03-05T06:40:13.315Z,83.59
2024-03-05T06:42:42.306Z,83.77
2024-03-05T06:45:16.385Z,83.08
2024-03-05T06:48:07.067Z,82.65
2024-03-05T06:50:39.262Z,83.38
2024-03-05T06:53:25.285Z,83.73
2024-03-05T06:56:10.635Z,84.32
2024-03-05T06:58:39.972Z,83.92
2024-03-05T07:01:09.397Z,84.06
2024-03-05T07:03:36.911Z,83.11
2024-03-05T07:06:08.308Z,83.63
2024-03-05T07:08:36.399Z,83.67
2024-03-05T07:11:06.791Z,83.08
2024-03-05T07:13:35.049Z,84.28
2024-03-05T07:16:03.432Z,83.72
2024-03-05T07:18:29.900Z,83.32
2024-03-05T07:20:56.332Z,83.20
2024-03-05T07:23:22.750Z,82.99
2024-03-05T07:25:49.323Z,83.08
2024-03-05T07:28:17.013Z,82.79
2024-03-05T07:30:43.691Z,82.85
2024-03-05T07:33:10.649Z,82.48
2024-03-05T07:35:37.242Z,82.44
2024-03-05T07:38:03.903Z,82.22
2024-03-05T07:40:30.852Z,82.59
2024-03-05T07:42:57.312Z,82.88
2024-03-05T07:45:24.283Z,82.20
2024-03-05T07:47:51.570Z,82.45
2024-03-05T07:50:18.268Z,81.43
2024-03-05T07:52:46.401Z,81.71
2024-03-05T07:55:15.449Z,82.01
2024-03-05T07:57:46.541Z,82.04
2024-03-05T08:00:14.832Z,81.30
2024-03-05T08:02:43.675Z,81.20
2024-03-05T08:05:10.562Z,81.85
2024-03-05T08:07:37.682Z,80.89
2024-03-05T08:10:06.375Z,81.38
2024-03-05T08:12:32.727Z,81.57
2024-03-05T08:14:59.185Z,80.89
2024-03-05T08:17:25.586Z,80.94
2024-03-05T08:19:52.852Z,80.37
2024-03-05T08:22:29.241Z,80.87
2024-03-05T08:24:55.961Z,80.65
2024-03-05T08:27:22.865Z,80.55
2024-03-05T08:29:51.065Z,80.04
2024-03-05T08:32:18.611Z,79.94
2024-03-05T08:34:45.137Z,80.03
2024-03-05T08:37:12.909Z,79.27
2024-03-05T08:39:42.247Z,79.61
2024-03-05T08:42:08.706Z,79.07
2024-03-05T08:44:35.049Z,78.87
2024-03-05T08:47:01.445Z,79.10
2024-03-05T08:49:27.888Z,78.31
2024-03-05T08:51:54.414Z,77.83
2024-03-05T08:54:22.016Z,78.64
2024-03-05T08:56:48.621Z,76.91
2024-03-05T08:59:15.542Z,77.71
2024-03-05T09:01:42.086Z,76.85
2024-03-05T09:04:08.558Z,76.80
2024-03-05T09:06:34.968Z,77.05
2024-03-05T09:09:01.470Z,76.55
2024-03-05T09:11:28.973Z,76.13
2024-03-05T09:13:55.461Z,75.72
2024-03-05T09:16:21.863Z,75.93
2024-03-05T09:18:48.335Z,76.21
2024-03-05T09:21:15.434Z,76.24
2024-03-05T09:23:41.917Z,76.01
2024-03-05T09:26:08.801Z,75.46
2024-03-05T09:28:36.319Z,75.40
2024-03-05T09:31:02.834Z,74.86
2024-03-05T09:33:30.461Z,75.18
2024-03-05T09:35:57.223Z,74.29
2024-03-05T09:38:23.648Z,75.42
2024-03-05T09:40:52.266Z,74.32
2024-03-05T09:43:25.280Z,74.83
2024-03-05T09:45:52.664Z,74.62
2024-03-05T09:48:20.861Z,74.74
2024-03-05T09:50:49.644Z,74.56
2024-03-05T09:53:16.937Z,73.40
2024-03-05T09:55:44.888Z,72.71
2024-03-05T09:58:12.332Z,73.33
2024-03-05T10:00:39.248Z,72.49
2024-03-05T10:03:09.968Z,72.64
2024-03-05T10:05:41.430Z,72.40
2024-03-05T10:08:07.967Z,73.09
2024-03-05T10:10:34.609Z,72.42
2024-03-05T10:13:02.323Z,73.17
2024-03-05T10:15:28.767Z,72.77
2024-03-05T10:17:56.529Z,71.83
2024-03-05T10:20:33.931Z,72.33
2024-03-05T10:23:02.854Z,72.07
2024-03-05T10:25:30.899Z,71.62
2024-03-05T10:27:58.195Z,70.73
2024-03-05T10:30:28.691Z,70.40
2024-03-05T10:32:58.772Z,70.78
2024-03-05T10:35:25.216Z,71.21
2024-03-05T10:38:02.088Z,70.98
2024-03-05T10:40:39.037Z,71.00
2024-03-05T10:43:08.851Z,70.68
2024-03-05T10:45:42.359Z,70.33
2024-03-05T10:48:11.657Z,70.96
2024-03-05T10:50:41.415Z,70.53
2024-03-05T10:53:08.842Z,70.45
2024-03-05T10:55:37.753Z,70.54
2024-03-05T10:58:14.882Z,70.20
2024-03-05T11:00:44.883Z,70.18
2024-03-05T11:03:14.161Z,70.35
2024-03-05T11:05:49.001Z,70.02
2024-03-05T11:08:19.233Z,69.98
2024-03-05T11:10:56.232Z,70.13
2024-03-05T11:13:23.187Z,69.15
2024-03-05T11:15:50.493Z,68.96
2024-03-05T11:18:30.176Z,68.00
2024-03-05T11:20:57.094Z,68.34
2024-03-05T11:23:27.940Z,68.89
2024-03-05T11:26:01.958Z,68.56
2024-03-05T11:28:28.554Z,66.37
2024-03-05T11:31:21.486Z,66.89
2024-03-05T11:33:58.598Z,66.69
2024-03-05T11:36:25.477Z,66.23
2024-03-05T11:38:57.077Z,65.59
2024-03-05T11:41:24.922Z,64.86
2024-03-05T11:43:51.401Z,65.25
2024-03-05T11:46:48.483Z,65.15
2024-03-05T11:49:16.831Z,65.01
2024-03-05T11:51:45.560Z,65.81
2024-03-05T11:54:19.971Z,65.54
2024-03-05T11:56:57.339Z,64.12
2024-03-05T11:59:35.507Z,64.51
2024-03-05T12:02:02.347Z,63.56
2024-03-05T12:04:28.950Z,64.03
2024-03-05T12:07:08.125Z,63.61
2024-03-05T12:09:39.181Z,62.57
2024-03-05T12:12:14.838Z,61.40
2024-03-05T12:14:56.902Z,60.86
2024-03-05T12:17:25.381Z,60.37
2024-03-05T12:20:05.881Z,60.89
2024-03-05T12:22:32.479Z,61.79
2024-03-05T12:24:59.354Z,62.17
2024-03-05T12:27:26.148Z,60.57
2024-03-05T12:29:53.462Z,61.78
2024-03-05T12:32:20.335Z,62.10
2024-03-05T12:34:50.720Z,61.56
2024-03-05T12:37:20.293Z,61.43
2024-03-05T12:39:46.916Z,60.90
2024-03-05T12:42:21.947Z,60.79
2024-03-05T12:44:48.755Z,62.10
2024-03-05T12:47:19.732Z,61.84
2024-03-05T12:49:49.316Z,61.76
2024-03-05T12:52:20.991Z,60.58
2024-03-05T12:54:58.003Z,60.20
2024-03-05T12:57:25.988Z,60.48
2024-03-05T12:59:52.422Z,60.23
2024-03-05T13:02:19.215Z,60.36
2024-03-05T13:04:46.498Z,60.05
2024-03-05T13:07:13.184Z,59.92
2024-03-05T13:09:39.538Z,60.94
2024-03-05T13:12:06.469Z,60.04
2024-03-05T13:14:33.051Z,59.99
2024-03-05T13:17:00.037Z,59.95
2024-03-05T13:19:26.495Z,59.65
2024-03-05T13:21:53.104Z,58.67
2024-03-05T13:24:19.470Z,60.43
2024-03-05T13:26:49.452Z,59.29
2024-03-05T13:29:16.026Z,59.42
2024-03-05T13:31:42.683Z,59.46
2024-03-05T13:34:10.440Z,57.68
2024-03-05T13:36:40.515Z,57.26
2024-03-05T13:39:09.973Z,57.81
2024-03-05T13:41:37.611Z,58.91
2024-03-05T13:44:05.320Z,58.24
2024-03-05T13:46:32.342Z,57.73
2024-03-05T13:48:59.567Z,57.14
2024-03-05T13:51:27.618Z,57.19
2024-03-05T13:53:59.232Z,57.12
2024-03-05T13:56:29.947Z,56.46
2024-03-05T13:58:58.983Z,56.51
2024-03-05T14:01:25.484Z,56.30
2024-03-05T14:03:55.264Z,56.50
2024-03-05T14:06:22.214Z,56.62
2024-03-05T14:08:49.398Z,55.85
2024-03-05T14:11:16.144Z,57.62
2024-03-05T14:13:45.188Z,57.77
2024-03-05T14:16:14.829Z,58.26
2024-03-05T14:18:42.471Z,58.66
2024-03-05T14:21:08.861Z,58.10
2024-03-05T14:23:35.717Z,58.39
2024-03-05T14:26:02.231Z,58.31
2024-03-05T14:28:31.428Z,57.99
2024-03-05T14:30:57.819Z,57.11
2024-03-05T14:33:24.148Z,56.25
2024-03-05T14:35:51.111Z,56.54
2024-03-05T14:38:17.945Z,56.50
2024-03-05T14:40:44.528Z,56.46
2024-03-05T14:43:11.176Z,56.80
2024-03-05T14:45:37.531Z,55.43
2024-03-05T14:48:04.469Z,56.54
2024-03-05T14:50:31.120Z,55.89
2024-03-05T14:52:57.615Z,56.38
2024-03-05T14:55:26.501Z,57.96
2024-03-05T14:57:54.567Z,57.84
2024-03-05T15:00:24.387Z,58.16
2024-03-05T15:02:51.954Z,57.39
2024-03-05T15:05:19.919Z,57.12
2024-03-05T15:07:46.893Z,58.01
2024-03-05T15:10:15.783Z,57.64
2024-03-05T15:12:51.030Z,57.39
2024-03-05T15:15:18.952Z,57.45
2024-03-05T15:17:46.836Z,56.74
2024-03-05T15:20:16.560Z,57.55
2024-03-05T15:22:44.900Z,57.44
2024-03-05T15:25:12.998Z,57.53
2024-03-05T15:27:45.598Z,57.13
2024-03-05T15:30:14.437Z,57.29
2024-03-05T15:32:48.595Z,57.17
2024-03-05T15:35:16.748Z,56.92
2024-03-05T15:37:44.564Z,58.37
2024-03-05T15:40:21.740Z,61.75
2024-03-05T15:42:50.700Z,63.07
2024-03-05T15:45:19.279Z,64.42
2024-03-05T15:47:47.132Z,65.57
2024-03-05T15:50:24.771Z,66.39
2024-03-05T15:52:58.304Z,66.38
2024-03-05T15:55:26.320Z,66.14
2024-03-05T15:57:59.080Z,67.38
2024-03-05T16:00:29.858Z,67.92
2024-03-05T16:03:00.240Z,67.81
2024-03-05T16:05:39.424Z,68.55
2024-03-05T16:08:15.752Z,68.52
2024-03-05T16:10:48.354Z,68.55
2024-03-05T16:13:15.726Z,69.38
2024-03-05T16:15:45.458Z,68.86
2024-03-05T16:18:12.569Z,69.91
2024-03-05T16:20:40.497Z,70.68
2024-03-05T16:23:10.581Z,71.17
2024-03-05T16:25:40.444Z,70.09
2024-03-05T16:28:07.615Z,70.54
2024-03-05T16:30:34.305Z,70.58
2024-03-05T16:33:01.083Z,70.10
2024-03-05T16:35:28.446Z,69.53
2024-03-05T16:37:55.709Z,69.70
2024-03-05T16:40:23.591Z,70.29
2024-03-05T16:42:53.291Z,70.41
2024-03-05T16:45:29.035Z,69.77
2024-03-05T16:47:57.737Z,70.81
2024-03-05T16:50:28.006Z,71.13
2024-03-05T16:52:57.509Z,71.00
2024-03-05T16:55:24.748Z,71.31
2024-03-05T16:57:54.026Z,71.12
2024-03-05T17:00:28.547Z,71.56
2024-03-05T17:02:56.850Z,71.54
2024-03-05T17:05:24.830Z,70.66
2024-03-05T17:07:55.705Z,71.75
2024-03-05T17:10:27.940Z,71.42
2024-03-05T17:12:56.835Z,70.86
2024-03-05T17:15:32.765Z,70.66
2024-03-05T17:18:04.900Z,70.87
2024-03-05T17:20:34.837Z,70.88
2024-03-05T17:23:04.242Z,70.29
2024-03-05T17:25:39.610Z,70.65
2024-03-05T17:28:09.720Z,70.60
2024-03-05T17:30:39.076Z,70.01
2024-03-05T17:33:12.692Z,70.75
2024-03-05T17:35:41.611Z,70.19
2024-03-05T17:38:10.735Z,70.79
2024-03-05T17:40:37.304Z,70.83
2024-03-05T17:43:05.121Z,71.15
2024-03-05T17:45:32.674Z,71.46
2024-03-05T17:48:02.225Z,71.61
2024-03-05T17:50:28.967Z,71.09
2024-03-05T17:52:55.639Z,71.51
2024-03-05T17:55:22.171Z,72.09
2024-03-05T17:57:52.073Z,71.73
2024-03-05T18:00:28.625Z,71.31
2024-03-05T18:02:56.858Z,71.80
2024-03-05T18:05:27.877Z,71.64
2024-03-05T18:07:55.128Z,72.11
2024-03-05T18:10:24.158Z,72.62
2024-03-05T18:12:51.926Z,72.65
2024-03-05T18:15:20.924Z,72.50
2024-03-05T18:17:49.793Z,73.00
2024-03-05T18:20:20.133Z,73.42
2024-03-05T18:22:47.413Z,72.83
2024-03-05T18:25:18.205Z,73.48
2024-03-05T18:27:47.854Z,73.11
2024-03-05T18:30:19.732Z,73.49
2024-03-05T18:32:48.215Z,74.10
2024-03-05T18:35:17.656Z,74.25
2024-03-05T18:37:44.638Z,74.38
2024-03-05T18:40:14.623Z,74.71
2024-03-05T18:42:46.670Z,74.69
2024-03-05T18:45:16.736Z,75.28
2024-03-05T18:47:54.483Z,74.76
2024-03-05T18:50:28.955Z,75.35
2024-03-05T18:52:58.238Z,75.70
2024-03-05T18:55:29.817Z,75.74
2024-03-05T18:57:57.296Z,75.11
2024-03-05T19:00:24.459Z,75.53
2024-03-05T19:02:51.842Z,75.32
2024-03-05T19:05:20.097Z,75.59
2024-03-05T19:07:48.298Z,75.20
2024-03-05T19:10:17.137Z,75.30
2024-03-05T19:12:44.485Z,75.56
2024-03-05T19:15:16.744Z,75.42
2024-03-05T19:17:43.843Z,75.60
2024-03-05T19:20:12.095Z,75.70
2024-03-05T19:22:39.939Z,75.43
2024-03-05T19:25:11.608Z,76.23
2024-03-05T19:27:42.685Z,75.69
2024-03-05T19:30:12.423Z,75.80
2024-03-05T19:32:43.244Z,75.42
2024-03-05T19:35:11.815Z,76.12
2024-03-05T19:37:45.903Z,75.31
2024-03-05T19:40:16.817Z,76.43
2024-03-05T19:42:45.724Z,76.44
2024-03-05T19:45:13.213Z,76.48
2024-03-05T19:47:39.776Z,76.64
2024-03-05T19:50:07.033Z,76.16
2024-03-05T19:52:34.545Z,77.08
2024-03-05T19:55:01.053Z,77.30
2024-03-05T19:57:28.212Z,76.70
2024-03-05T19:59:56.906Z,76.91
2024-03-05T20:02:24.562Z,76.95
2024-03-05T20:04:51.177Z,76.97
2024-03-05T20:07:20.983Z,76.84
2024-03-05T20:09:47.333Z,76.48
2024-03-05T20:12:13.923Z,76.45
2024-03-05T20:14:40.571Z,76.86
2024-03-05T20:17:08.569Z,76.71
2024-03-05T20:19:40.261Z,77.17
2024-03-05T20:22:08.574Z,76.75
2024-03-05T20:24:36.190Z,76.63
2024-03-05T20:27:10.153Z,77.15
2024-03-05T20:29:41.554Z,77.03
2024-03-05T20:32:08.216Z,76.27
2024-03-05T20:34:34.952Z,76.93
2024-03-05T20:37:02.270Z,75.83
2024-03-05T20:39:28.709Z,77.06
2024-03-05T20:41:55.185Z,76.45
2024-03-05T20:44:22.088Z,76.75
2024-03-05T20:46:48.563Z,76.89
2024-03-05T20:49:16.091Z,76.45
2024-03-05T20:51:42.475Z,76.72
2024-03-05T20:54:09.064Z,77.17
2024-03-05T20:56:35.458Z,76.60
2024-03-05T20:59:01.931Z,76.57
2024-03-05T21:01:30.452Z,76.76
2024-03-05T21:03:56.932Z,77.35
2024-03-05T21:06:23.292Z,76.96
2024-03-05T21:08:49.709Z,77.20
2024-03-05T21:11:16.445Z,76.70
2024-03-05T21:13:43.540Z,76.28
2024-03-05T21:16:10.940Z,76.39
2024-03-05T21:18:40.560Z,77.03
2024-03-05T21:21:07.971Z,77.25
2024-03-05T21:23:35.331Z,76.42
2024-03-05T21:26:13.538Z,77.21
2024-03-05T21:28:49.514Z,77.01
2024-03-05T21:31:18.206Z,76.51
2024-03-05T21:33:44.789Z,76.82
2024-03-05T21:36:11.243Z,76.12
2024-03-05T21:38:37.809Z,76.22
2024-03-05T21:41:04.802Z,76.18
2024-03-05T21:43:31.259Z,75.68
2024-03-05T21:45:57.979Z,76.07
2024-03-05T21:48:24.328Z,76.58
2024-03-05T21:50:55.049Z,76.11
2024-03-05T21:53:23.765Z,76.11
2024-03-05T21:55:50.182Z,75.66
2024-03-05T21:58:16.549Z,75.87
2024-03-05T22:00:43.083Z,76.02
2024-03-05T22:03:09.552Z,75.55
2024-03-05T22:05:35.924Z,76.02
2024-03-05T22:08:02.466Z,76.00
2024-03-05T22:10:29.531Z,76.54
2024-03-05T22:12:56.386Z,75.95
2024-03-05T22:15:23.286Z,75.88
2024-03-05T22:17:49.726Z,76.11
2024-03-05T22:20:16.701Z,76.02
2024-03-05T22:22:43.208Z,76.10
2024-03-05T22:25:09.804Z,76.27
2024-03-05T22:27:36.486Z,75.88
2024-03-05T22:30:03.955Z,76.80
2024-03-05T22:32:30.406Z,76.55
2024-03-05T22:34:59.003Z,76.91
2024-03-05T22:37:25.640Z,77.13
2024-03-05T22:39:52.071Z,77.36
2024-03-05T22:42:18.550Z,76.64
2024-03-05T22:44:45.002Z,76.95
2024-03-05T22:47:11.477Z,77.65
2024-03-05T22:49:38.463Z,77.51
2024-03-05T22:52:05.343Z,77.81
2024-03-05T22:54:31.764Z,78.06
2024-03-05T22:56:58.192Z,77.45
2024-03-05T22:59:24.669Z,77.81
2024-03-05T23:01:51.131Z,76.96
2024-03-05T23:04:18.126Z,77.72
2024-03-05T23:06:44.556Z,77.71
2024-03-05T23:09:13.325Z,77.89
2024-03-05T23:11:42.531Z,78.13
2024-03-05T23:14:10.534Z,77.67
2024-03-05T23:16:37.821Z,77.65
2024-03-05T23:19:07.184Z,77.57
2024-03-05T23:21:33.689Z,78.65
2024-03-05T23:24:00.773Z,78.34
2024-03-05T23:26:28.045Z,78.50
2024-03-05T23:28:54.819Z,78.30
2024-03-05T23:31:21.316Z,78.53
2024-03-05T23:33:47.725Z,78.66
2024-03-05T23:36:14.086Z,78.86
2024-03-05T23:38:40.836Z,77.75
2024-03-05T23:41:16.703Z,79.08
2024-03-05T23:43:50.738Z,78.13
2024-03-05T23:46:17.307Z,78.28
2024-03-05T23:48:43.672Z,78.51
2024-03-05T23:51:12.358Z,77.92
2024-03-05T23:53:39.943Z,78.44
2024-03-05T23:56:07.399Z,78.25
2024-03-05T23:58:33.825Z,78.75
